• Join FlightAware (Why Join?)
  • Login
  • US Flag 
07:42PM EST


 

Airport Tracker/Info


-or-


 

Live Flight TrackerFlight Track Log ✈ UAL6057 ✈ 15-Jun-2014 ✈ KORD - KBNA

Flight Track Log - Related Links

Times and Time Zones

All times are in EDT time to prevent confusion due to time zone crossing. See the UAL6057 flight status page for this flight to view local times or setup timezone preferences in your user account.

Time Position Orientation Groundspeed Altitude Reporting Facility
EDT Latitude Longitude Course Direction KTS MPH feet Rate Location/Type
11:06PM 41.9333 -87.9000 180° South 167 192 3,000  Level Chicago TRACON
11:07PM 41.8803 -87.8997 180° South 192 221 4,700 2,160 Climbing Chicago Center
11:08PM 41.8075 -87.8961 178° South 248 285 7,200 2,280 Climbing Chicago Center
11:09PM 41.5938 -87.8197 180° South  Level Estimated
11:09PM 41.7306 -87.8925 178° South 276 318 9,400  Level Chicago Center
11:10PM 41.4974 -87.7980 176° South  Level Estimated
11:10PM 41.6497 -87.8886 178° South 291 335 11,800  Level Chicago Center
11:11PM 41.4010 -87.7763 180° South  Level Estimated
11:11PM 41.5522 -87.8831 178° South 336 387 12,900  Level Chicago Center
11:12PM 41.4542 -87.8783 178° South 351 404 14,600 1,620 Climbing Chicago Center
11:13PM 41.3556 -87.8819 182° South 355 409 16,300 1,620 Climbing Chicago Center
11:14PM 41.2619 -87.8914 184° South 354 407 18,000 1,560 Climbing Chicago Center
11:15PM 41.1631 -87.8906 180° South 353 406 19,500 1,440 Climbing Chicago Center
11:16PM 41.0636 -87.8872 179° South 353 406 21,000 1,320 Climbing Chicago Center
11:17PM 40.9614 -87.8836 178° South 362 417 22,300 1,200 Climbing Chicago Center
11:18PM 40.8578 -87.8808 179° South 369 425 23,500 1,140 Climbing Chicago Center
11:19PM 40.7522 -87.8761 178° South 375 432 24,700 1,320 Climbing Chicago Center
11:20PM 40.6228 -87.8731 179° South 385 443 26,200 1,320 Climbing Chicago Center
11:21PM 40.5136 -87.8692 178° South 389 448 27,400 1,140 Climbing Chicago Center
11:22PM 40.4053 -87.8658 179° South 389 448 28,600 1,140 Climbing Chicago Center
11:23PM 40.2972 -87.8619 178° South 389 448 29,800 660 Climbing Chicago Center
11:24PM 40.1811 -87.8589 179° South 395 455 30,000 60 Climbing Chicago Center
11:25PM 40.0631 -87.8467 175° South 423 487 30,000  Level Chicago Center
11:26PM 39.9408 -87.8192 170° South 443 510 30,000  Level Chicago Center
11:27PM 39.8425 -87.7950 169° South 440 506 30,000  Level Indianapolis Center
11:28PM 39.7228 -87.7689 170° South 440 506 30,000  Level Indianapolis Center
11:29PM 39.5803 -87.7381 171° South 439 505 30,000  Level Indianapolis Center
11:30PM 39.4606 -87.7108 170° South 438 504 30,000  Level Indianapolis Center
11:31PM 39.3503 -87.6861 170° South 438 504 30,000  Level Indianapolis Center
11:32PM 39.2281 -87.6589 170° South 441 507 30,000  Level Indianapolis Center
11:33PM 39.1061 -87.6322 170° South 441 507 30,000  Level Indianapolis Center
11:34PM 38.9831 -87.6044 170° South 443 510 30,000  Level Indianapolis Center
11:36PM 38.7389 -87.5522 171° South 444 511 30,000  Level Indianapolis Center
11:37PM 38.6161 -87.5247 170° South 444 511 30,000  Level Indianapolis Center
11:38PM 38.4681 -87.4928 170° South 446 513 30,000  Level Indianapolis Center
11:39PM 38.3453 -87.4669 171° South 447 514 30,000  Level Indianapolis Center
11:40PM 38.2217 -87.4408 171° South 451 519 30,000  Level Indianapolis Center
11:41PM 38.0978 -87.4144 170° South 451 519 30,000  Level Indianapolis Center
11:42PM 37.9739 -87.3861 170° South 452 520 30,000  Level Indianapolis Center
11:43PM 37.8489 -87.3600 171° South 452 520 30,000 -960 Level Indianapolis Center
11:44PM 37.7239 -87.3333 170° South 457 526 28,100 -2,100 Descending Indianapolis Center
11:45PM 37.5958 -87.3061 170° South 460 529 25,800 -1,980 Descending Indianapolis Center
11:46PM 37.4711 -87.2789 170° South 455 524 24,200 -1,440 Descending Indianapolis Center
11:47PM 37.3467 -87.2539 171° South 452 520 22,900 -1,620 Descending Indianapolis Center
11:48PM 37.2336 -87.2175 166° South 418 481 21,000 -1,980 Descending Indianapolis Center
11:49PM 37.1264 -87.1872 167° South 397 457 19,000 -1,680 Descending Indianapolis Center
11:50PM 37.0208 -87.1569 167° South 390 449 17,700 -1,380 Descending Indianapolis Center
11:51PM 36.9192 -87.1286 167° South 384 442 16,300 -1,440 Descending Indianapolis Center
11:52PM 36.8122 -87.0956 166° South 384 442 14,900 -1,440 Descending Indianapolis Center
11:53PM 36.7194 -87.0372 153° Southeast 371 427 13,400 -2,040 Descending Indianapolis Center
11:54PM 36.6378 -86.9731 148° Southeast 349 402 10,900 -1,860 Descending Indianapolis Center
11:55PM 36.5697 -86.8983 139° Southeast 327 376 9,700 -1,500 Descending Indianapolis Center
11:56PM 36.5075 -86.8303 139° Southeast 301 346 7,900 -1,560 Descending Indianapolis Center
11:57PM 36.4478 -86.7656 139° Southeast 283 326 6,600 -1,200 Descending Indianapolis Center
11:58PM 36.3906 -86.7017 138° Southeast 276 318 5,500 -1,020 Descending Indianapolis Center
11:59PM 36.3339 -86.6533 146° Southeast 252 290 4,600 -1,140 Descending Indianapolis Center
12:00AM 36.2833 -86.6333 162° South 220 253 3,500 -1,200 Descending Nashville TRACON
12:01AM 36.2333 -86.6333 180° South 202 232 2,400 -1,020 Descending Nashville TRACON
12:02AM 36.1833 -86.6667 208° Southwest 148 170 1,500 -840 Descending Nashville TRACON
12:03AM 36.1500 -86.6667 180° South 133 153 800 -720 Descending Nashville TRACON